Time;durP1;ratioP1;P1;durP2;ratioP2;P2;SDS_P1;SDS_P2;PMS_P1;PMS_P2;Temp;Humidity;BMP_temperature;BMP_pressure;BME280_temperature;BME280_humidity;BME280_pressure;Samples;Min_cycle;Max_cycle;Signal;HPM_P1;HPM_P2
2021/07/17 00:02:11;;;;;;;10.13;9.13;;;25.20;90.70;;;;;;6125210;23;20010;-89
2021/07/17 00:04:36;;;;;;;11.35;10.15;;;25.20;90.70;;;;;;6125136;23;20321;-88
2021/07/17 00:07:02;;;;;;;10.13;9.13;;;25.20;91.20;;;;;;6125041;23;20002;-89
2021/07/17 00:09:28;;;;;;;12.00;10.20;;;25.20;91.10;;;;;;6125042;23;20433;-88
2021/07/17 00:11:53;;;;;;;12.43;11.20;;;25.20;91.30;;;;;;6124926;23;20018;-89
2021/07/17 00:14:19;;;;;;;10.90;9.80;;;25.20;91.40;;;;;;6125009;23;20100;-89
2021/07/17 00:16:45;;;;;;;9.10;8.18;;;25.20;91.50;;;;;;6124883;23;20073;-89
2021/07/17 00:19:11;;;;;;;10.77;9.23;;;25.20;91.40;;;;;;6124922;23;20026;-88
2021/07/17 00:21:37;;;;;;;12.70;10.70;;;25.20;91.50;;;;;;6126583;23;20002;-89
2021/07/17 00:24:04;;;;;;;11.80;10.60;;;25.10;91.80;;;;;;6124969;23;20013;-89
2021/07/17 00:26:29;;;;;;;11.95;10.75;;;25.10;92.20;;;;;;6126530;23;20002;-89
2021/07/17 00:28:55;;;;;;;12.38;11.15;;;25.00;91.90;;;;;;6124883;23;20049;-88
2021/07/17 00:31:21;;;;;;;13.25;9.10;;;25.00;92.10;;;;;;6124809;23;20021;-89
2021/07/17 00:33:47;;;;;;;10.70;9.70;;;25.00;92.10;;;;;;6124812;23;20010;-88
2021/07/17 00:36:12;;;;;;;10.32;9.23;;;24.90;92.10;;;;;;6126408;23;20006;-89
2021/07/17 00:38:38;;;;;;;10.70;9.40;;;24.90;92.20;;;;;;6128100;23;20009;-88
2021/07/17 00:41:04;;;;;;;12.20;9.45;;;24.90;92.10;;;;;;6129030;23;20382;-88
2021/07/17 00:43:29;;;;;;;9.65;8.70;;;24.90;92.20;;;;;;6131084;23;20002;-88
2021/07/17 00:45:55;;;;;;;9.98;8.65;;;24.80;92.20;;;;;;6130220;23;20005;-89
2021/07/17 00:48:24;;;;;;;9.30;7.93;;;24.80;92.20;;;;;;6126567;23;20419;-89
2021/07/17 00:50:50;;;;;;;10.27;9.27;;;24.80;92.10;;;;;;6124939;23;20418;-88
2021/07/17 00:53:16;;;;;;;10.25;9.18;;;24.70;92.10;;;;;;6126238;23;20002;-87
2021/07/17 00:55:47;;;;;;;9.98;8.98;;;24.80;92.10;;;;;;6128745;23;20073;-88
2021/07/17 00:58:15;;;;;;;9.48;8.48;;;24.70;92.10;;;;;;6128402;23;20067;-88
2021/07/17 01:00:42;;;;;;;9.93;8.93;;;24.70;92.00;;;;;;6126843;23;20044;-88
2021/07/17 01:03:09;;;;;;;10.80;9.75;;;24.70;92.40;;;;;;6127810;23;20457;-89
2021/07/17 01:05:36;;;;;;;10.13;9.13;;;24.70;92.20;;;;;;6126204;23;19994;-89
2021/07/17 01:08:02;;;;;;;12.63;8.93;;;24.70;92.20;;;;;;6126612;23;20012;-88
2021/07/17 01:10:28;;;;;;;12.93;9.85;;;24.70;92.30;;;;;;6126441;23;20002;-89
2021/07/17 01:12:55;;;;;;;10.40;8.95;;;24.60;92.50;;;;;;6126745;23;20437;-88
2021/07/17 01:15:21;;;;;;;10.68;9.30;;;24.70;92.50;;;;;;6128152;23;19998;-88
2021/07/17 01:17:47;;;;;;;11.43;9.52;;;24.60;92.50;;;;;;6127697;23;20001;-88
2021/07/17 01:20:16;;;;;;;10.73;9.52;;;24.60;92.70;;;;;;6126647;23;20442;-89
2021/07/17 01:22:43;;;;;;;11.45;10.05;;;24.60;92.90;;;;;;6126541;23;20006;-89
2021/07/17 01:25:31;;;;;;;10.52;9.40;;;24.60;92.90;;;;;;6126444;23;20002;-89
2021/07/17 01:27:58;;;;;;;12.02;10.60;;;24.50;92.90;;;;;;6126459;23;20017;-89
2021/07/17 01:30:27;;;;;;;11.52;10.32;;;24.50;93.30;;;;;;6126265;23;20010;-89
2021/07/17 01:32:53;;;;;;;12.07;10.88;;;24.50;93.40;;;;;;6126176;23;20457;-89
2021/07/17 01:35:19;;;;;;;11.90;10.60;;;24.50;93.60;;;;;;6126479;23;20002;-88
2021/07/17 01:37:45;;;;;;;10.85;9.75;;;24.40;93.50;;;;;;6126657;23;20010;-89
2021/07/17 01:40:18;;;;;;;14.00;10.07;;;24.40;93.60;;;;;;6126670;23;20002;-88
2021/07/17 01:42:46;;;;;;;11.25;9.93;;;24.40;93.70;;;;;;6127074;23;20010;-88
2021/07/17 01:45:24;;;;;;;10.80;9.68;;;24.40;93.70;;;;;;6126598;23;20076;-88
2021/07/17 01:47:51;;;;;;;11.85;10.65;;;24.40;93.90;;;;;;6126391;23;19998;-88
2021/07/17 01:50:16;;;;;;;10.80;9.73;;;24.30;93.80;;;;;;6127769;23;20041;-88
2021/07/17 01:52:42;;;;;;;10.63;9.40;;;24.30;93.80;;;;;;6126331;23;20010;-89
2021/07/17 01:55:08;;;;;;;10.77;9.32;;;24.30;93.80;;;;;;6127876;23;20077;-89
2021/07/17 01:57:34;;;;;;;11.57;9.38;;;24.30;93.70;;;;;;6126059;23;20002;-88
2021/07/17 02:00:00;;;;;;;11.32;9.43;;;24.30;93.70;;;;;;6126066;23;20013;-88
2021/07/17 02:02:25;;;;;;;11.00;9.95;;;24.20;93.70;;;;;;6126147;23;20016;-88
2021/07/17 02:04:51;;;;;;;11.32;10.10;;;24.20;93.80;;;;;;6125991;23;20006;-89
2021/07/17 02:07:17;;;;;;;10.82;9.73;;;24.20;93.90;;;;;;6127380;23;20074;-88
2021/07/17 02:09:42;;;;;;;13.48;11.50;;;24.20;94.00;;;;;;6126103;23;20005;-88
2021/07/17 02:12:08;;;;;;;13.77;12.38;;;24.20;94.10;;;;;;6126142;23;20497;-88
2021/07/17 02:14:39;;;;;;;13.02;11.73;;;24.20;94.20;;;;;;6125927;23;20006;-88
2021/07/17 02:17:05;;;;;;;14.85;12.75;;;24.20;94.30;;;;;;6126206;23;20006;-88
2021/07/17 02:19:31;;;;;;;14.13;12.05;;;24.10;94.40;;;;;;6126018;23;20009;-88
2021/07/17 02:21:57;;;;;;;12.32;11.10;;;24.10;94.40;;;;;;6126027;23;20065;-88
2021/07/17 02:24:23;;;;;;;12.93;11.45;;;24.10;94.50;;;;;;6125913;23;20002;-89
2021/07/17 02:26:49;;;;;;;15.77;11.95;;;24.10;94.60;;;;;;6125992;23;20407;-88
2021/07/17 02:29:15;;;;;;;13.93;12.52;;;24.00;94.60;;;;;;6126084;23;20006;-89
2021/07/17 02:31:41;;;;;;;12.55;11.23;;;24.00;94.80;;;;;;6125734;23;20022;-88
2021/07/17 02:34:10;;;;;;;14.13;12.60;;;24.00;94.80;;;;;;6125258;23;20044;-88
2021/07/17 02:36:37;;;;;;;14.50;13.00;;;24.00;95.00;;;;;;6125982;23;20002;-89
2021/07/17 02:39:04;;;;;;;12.75;11.35;;;24.00;95.20;;;;;;6125918;23;20453;-88
2021/07/17 02:41:30;;;;;;;14.65;13.13;;;24.00;95.00;;;;;;6128380;23;20035;-88
2021/07/17 02:43:56;;;;;;;14.73;12.57;;;24.00;95.10;;;;;;6127129;23;20013;-88
2021/07/17 02:46:22;;;;;;;12.95;11.73;;;24.00;95.10;;;;;;6128718;23;20002;-88
2021/07/17 02:48:48;;;;;;;16.30;13.13;;;24.00;95.20;;;;;;6126878;23;20053;-89
2021/07/17 02:51:14;;;;;;;12.77;11.43;;;24.00;95.20;;;;;;6126497;23;20014;-88
2021/07/17 02:53:39;;;;;;;12.10;10.80;;;24.00;95.30;;;;;;6126293;23;20025;-88
2021/07/17 02:56:05;;;;;;;13.20;11.90;;;24.00;95.40;;;;;;6126025;23;20035;-88
2021/07/17 02:58:31;;;;;;;14.13;12.70;;;24.10;95.40;;;;;;6125524;23;20022;-89
2021/07/17 03:00:57;;;;;;;13.15;11.75;;;24.10;95.50;;;;;;6125893;23;20529;-89
2021/07/17 03:03:23;;;;;;;13.88;11.98;;;24.10;95.40;;;;;;6125961;23;20597;-88
2021/07/17 03:05:49;;;;;;;12.50;10.27;;;24.10;95.50;;;;;;6125560;23;20009;-89
2021/07/17 03:08:19;;;;;;;10.85;9.65;;;24.10;95.20;;;;;;6125521;23;20015;-89
2021/07/17 03:10:45;;;;;;;10.48;9.38;;;24.20;95.10;;;;;;6126995;23;20060;-89
2021/07/17 03:13:11;;;;;;;13.25;11.82;;;24.20;94.90;;;;;;6125155;23;20014;-88
2021/07/17 03:15:37;;;;;;;13.48;11.43;;;24.20;94.90;;;;;;6126392;23;20018;-88
2021/07/17 03:18:03;;;;;;;13.70;12.10;;;24.30;94.70;;;;;;6125413;23;20081;-88
2021/07/17 03:20:29;;;;;;;14.07;11.02;;;24.30;94.40;;;;;;6125454;23;20418;-88
2021/07/17 03:22:55;;;;;;;12.70;10.32;;;24.40;94.10;;;;;;6125587;23;20077;-88
2021/07/17 03:25:20;;;;;;;12.32;10.88;;;24.40;93.90;;;;;;6125366;23;20012;-89
2021/07/17 03:27:46;;;;;;;13.43;11.48;;;24.50;93.50;;;;;;6125556;23;20053;-88
2021/07/17 03:30:12;;;;;;;13.75;11.52;;;24.60;93.30;;;;;;6125571;23;20006;-89
2021/07/17 03:32:38;;;;;;;11.25;9.57;;;24.60;93.00;;;;;;6124836;23;20108;-88
2021/07/17 03:35:05;;;;;;;10.60;9.52;;;24.60;92.90;;;;;;6125239;23;20034;-89
2021/07/17 03:37:31;;;;;;;12.10;10.73;;;24.70;92.80;;;;;;6126588;23;20002;-88
2021/07/17 03:39:56;;;;;;;11.90;10.70;;;24.70;92.50;;;;;;6125188;23;20040;-89
2021/07/17 03:42:22;;;;;;;10.52;9.43;;;24.70;92.30;;;;;;6125284;23;20017;-89
2021/07/17 03:44:48;;;;;;;13.65;11.05;;;24.80;92.10;;;;;;6125195;23;20001;-89
2021/07/17 03:47:14;;;;;;;13.93;12.43;;;24.80;91.90;;;;;;6125094;23;20061;-89
2021/07/17 03:49:40;;;;;;;13.02;11.40;;;24.90;91.90;;;;;;6125507;23;20383;-89
2021/07/17 03:52:06;;;;;;;12.23;11.02;;;24.90;91.80;;;;;;6126657;23;20010;-88
2021/07/17 03:54:32;;;;;;;11.55;9.93;;;24.90;91.60;;;;;;6126677;23;20041;-88
2021/07/17 03:56:58;;;;;;;11.40;10.20;;;25.00;91.60;;;;;;6126547;23;20002;-89
2021/07/17 03:59:23;;;;;;;9.90;8.90;;;25.00;91.50;;;;;;6126515;23;20005;-89
2021/07/17 04:01:51;;;;;;;10.23;9.23;;;25.20;91.50;;;;;;6125092;23;20006;-88
2021/07/17 04:04:18;;;;;;;11.90;10.50;;;25.20;91.30;;;;;;6124898;23;20006;-88
2021/07/17 04:06:44;;;;;;;13.07;10.32;;;25.30;91.10;;;;;;6126677;23;20061;-88
2021/07/17 04:09:09;;;;;;;12.35;10.80;;;25.30;90.90;;;;;;6124536;23;20006;-89
2021/07/17 04:11:35;;;;;;;11.75;10.55;;;25.40;90.90;;;;;;6124982;23;20085;-89
2021/07/17 04:14:01;;;;;;;14.55;11.38;;;25.50;90.90;;;;;;6125141;23;20006;-88
2021/07/17 04:16:26;;;;;;;13.75;12.35;;;25.50;90.90;;;;;;6124862;23;20032;-89
2021/07/17 04:18:52;;;;;;;14.05;11.85;;;25.60;90.90;;;;;;6126533;23;20002;-89
2021/07/17 04:21:18;;;;;;;16.15;13.52;;;25.60;91.10;;;;;;6124930;23;20329;-89
2021/07/17 04:23:44;;;;;;;15.93;13.65;;;25.60;91.20;;;;;;6125008;23;20026;-89
2021/07/17 04:26:09;;;;;;;13.98;12.48;;;25.60;91.40;;;;;;6125069;23;20064;-89
2021/07/17 04:28:35;;;;;;;15.27;13.68;;;25.70;91.30;;;;;;6126547;23;20560;-90
2021/07/17 04:31:02;;;;;;;13.48;11.50;;;25.80;91.10;;;;;;6124749;23;20006;-88
2021/07/17 04:33:28;;;;;;;13.23;11.93;;;25.80;91.00;;;;;;6124706;23;20010;-90
2021/07/17 04:35:54;;;;;;;12.85;11.52;;;25.80;91.10;;;;;;6124968;23;20017;-89
2021/07/17 04:38:20;;;;;;;12.52;11.23;;;25.90;90.70;;;;;;6124843;23;20006;-89
2021/07/17 04:40:46;;;;;;;12.77;11.52;;;26.00;90.80;;;;;;6126156;23;20009;-89
2021/07/17 04:43:11;;;;;;;14.43;12.93;;;26.10;90.50;;;;;;6124808;23;20006;-89
2021/07/17 04:45:37;;;;;;;13.30;10.82;;;26.20;90.30;;;;;;6126660;23;19998;-89
2021/07/17 04:48:05;;;;;;;11.02;9.98;;;26.30;90.20;;;;;;6128413;23;20002;-89
2021/07/17 04:50:37;;;;;;;11.60;10.50;;;26.30;90.00;;;;;;6125587;23;20049;-89
2021/07/17 04:53:03;;;;;;;12.07;10.80;;;26.40;89.50;;;;;;6126816;23;20030;-88
2021/07/17 04:55:29;;;;;;;13.30;11.95;;;26.50;89.10;;;;;;6126334;23;20006;-88
2021/07/17 04:57:55;;;;;;;10.27;9.27;;;26.50;88.10;;;;;;6125387;23;20294;-89
2021/07/17 05:00:20;;;;;;;10.63;9.55;;;26.60;87.70;;;;;;6125958;23;20052;-89
2021/07/17 05:02:51;;;;;;;11.63;10.52;;;26.60;87.00;;;;;;6124660;23;20001;-90
2021/07/17 05:05:18;;;;;;;10.73;9.73;;;26.70;85.80;;;;;;6125007;23;20106;-89
2021/07/17 05:07:47;;;;;;;10.90;9.80;;;26.70;85.90;;;;;;6126244;23;20002;-89
2021/07/17 05:10:15;;;;;;;11.35;10.05;;;26.70;85.60;;;;;;6124814;23;20009;-90
2021/07/17 05:12:40;;;;;;;10.73;9.65;;;26.70;85.10;;;;;;6125129;23;20002;-89
2021/07/17 05:15:14;;;;;;;12.32;11.13;;;26.80;85.20;;;;;;6124928;23;20006;-89
2021/07/17 05:17:40;;;;;;;11.82;10.63;;;26.70;82.10;;;;;;6126127;23;19998;-88
2021/07/17 05:20:08;;;;;;;11.10;9.90;;;26.60;83.70;;;;;;6124781;23;20388;-88
2021/07/17 05:22:34;;;;;;;11.65;9.50;;;26.60;83.90;;;;;;6124525;23;20077;-88
2021/07/17 05:25:00;;;;;;;11.02;9.93;;;26.70;83.80;;;;;;6124531;23;20002;-89
2021/07/17 05:27:26;;;;;;;11.32;10.10;;;26.70;83.80;;;;;;6126038;23;20021;-89
2021/07/17 05:29:51;;;;;;;10.70;9.75;;;26.80;83.60;;;;;;6124458;23;20406;-89
2021/07/17 05:32:18;;;;;;;9.98;9.05;;;26.80;82.80;;;;;;6124115;23;20036;-88
2021/07/17 05:34:44;;;;;;;10.68;9.55;;;26.90;83.00;;;;;;6124810;23;20013;-88
2021/07/17 05:37:11;;;;;;;10.63;9.52;;;26.90;82.80;;;;;;6124518;23;20002;-89
2021/07/17 05:39:37;;;;;;;11.77;10.60;;;27.00;82.10;;;;;;6125718;23;20077;-88
2021/07/17 05:42:04;;;;;;;12.43;11.05;;;27.10;81.50;;;;;;6125450;23;20028;-89
2021/07/17 05:44:30;;;;;;;13.60;12.35;;;27.10;81.20;;;;;;6126371;23;20010;-89
2021/07/17 05:46:56;;;;;;;11.75;10.50;;;27.20;81.00;;;;;;6126209;23;20372;-89
2021/07/17 05:49:22;;;;;;;11.85;10.73;;;27.20;81.00;;;;;;6126564;23;20322;-88
2021/07/17 05:51:48;;;;;;;12.35;11.15;;;27.20;80.70;;;;;;6126574;23;20010;-88
2021/07/17 05:54:14;;;;;;;12.45;9.93;;;27.20;80.50;;;;;;6126234;23;20006;-88
2021/07/17 05:56:43;;;;;;;10.85;9.75;;;27.30;80.70;;;;;;6125868;23;20013;-88
2021/07/17 05:59:08;;;;;;;12.45;11.23;;;27.30;80.40;;;;;;6125522;23;20010;-89
2021/07/17 06:01:34;;;;;;;12.60;10.82;;;27.40;80.40;;;;;;6126049;23;20013;-88
2021/07/17 06:04:01;;;;;;;13.00;10.63;;;27.50;80.10;;;;;;6125200;23;19998;-88
2021/07/17 06:06:30;;;;;;;12.82;11.38;;;27.60;79.70;;;;;;6127210;23;20002;-89
2021/07/17 06:08:56;;;;;;;12.35;10.88;;;27.60;79.20;;;;;;6124495;23;20029;-88
2021/07/17 06:11:22;;;;;;;11.27;10.07;;;27.60;79.20;;;;;;6124260;23;20006;-88
2021/07/17 06:13:48;;;;;;;10.52;9.52;;;27.60;79.00;;;;;;6124826;23;20093;-88
2021/07/17 06:16:14;;;;;;;12.15;10.98;;;27.70;79.30;;;;;;6124161;23;20312;-88
2021/07/17 06:18:39;;;;;;;11.60;10.48;;;27.80;78.70;;;;;;6122746;23;20057;-88
2021/07/17 06:21:05;;;;;;;11.52;10.43;;;27.80;78.30;;;;;;6123756;23;20010;-88
2021/07/17 06:23:31;;;;;;;13.60;12.25;;;27.90;78.70;;;;;;6125075;23;19998;-88
2021/07/17 06:25:57;;;;;;;13.48;12.07;;;28.00;78.00;;;;;;6125063;23;20002;-88
2021/07/17 06:28:22;;;;;;;13.48;11.35;;;28.00;77.70;;;;;;6123603;23;20108;-88
2021/07/17 06:30:48;;;;;;;17.17;12.52;;;28.00;78.10;;;;;;6124507;23;20017;-87
2021/07/17 06:33:14;;;;;;;11.98;10.88;;;28.00;77.90;;;;;;6126886;23;20434;-88
2021/07/17 06:35:40;;;;;;;11.88;10.73;;;28.00;77.40;;;;;;6125474;23;20006;-88
2021/07/17 06:38:05;;;;;;;11.73;10.52;;;28.00;77.50;;;;;;6125303;23;20009;-88
2021/07/17 06:40:31;;;;;;;13.38;12.05;;;28.10;77.40;;;;;;6124806;23;20345;-87
2021/07/17 06:42:57;;;;;;;12.90;11.63;;;28.20;76.80;;;;;;6125021;23;20017;-89
2021/07/17 06:45:23;;;;;;;11.98;9.90;;;28.30;76.80;;;;;;6124806;23;20009;-88
2021/07/17 06:47:49;;;;;;;12.80;11.50;;;28.30;76.50;;;;;;6125218;23;20386;-89
2021/07/17 06:50:17;;;;;;;11.77;10.68;;;28.40;76.30;;;;;;6124963;23;20009;-88
2021/07/17 06:52:43;;;;;;;12.55;11.35;;;28.50;76.20;;;;;;6125351;23;20021;-88
2021/07/17 06:55:10;;;;;;;12.15;10.95;;;28.60;76.10;;;;;;6124726;23;20330;-88
2021/07/17 06:57:37;;;;;;;11.30;10.20;;;28.70;75.70;;;;;;6127838;23;20002;-88
2021/07/17 07:00:08;;;;;;;9.75;8.75;;;28.80;75.00;;;;;;6126366;23;20049;-87
2021/07/17 07:02:33;;;;;;;10.70;9.60;;;28.90;75.20;;;;;;6126617;23;20037;-88
2021/07/17 07:04:59;;;;;;;10.57;9.55;;;29.10;74.80;;;;;;6128598;23;20005;-87
2021/07/17 07:07:25;;;;;;;10.32;9.32;;;29.20;74.30;;;;;;6102156;23;20009;-90
2021/07/17 07:09:51;;;;;;;10.85;9.75;;;29.40;73.80;;;;;;6123798;23;20326;-87
2021/07/17 07:12:17;;;;;;;11.45;10.40;;;29.40;73.20;;;;;;6125990;23;20057;-87
2021/07/17 07:14:43;;;;;;;11.45;10.35;;;29.60;72.80;;;;;;6125109;23;20472;-90
2021/07/17 07:17:09;;;;;;;11.02;9.98;;;29.50;72.40;;;;;;6124699;23;20018;-88
2021/07/17 07:19:35;;;;;;;11.63;10.40;;;29.60;72.00;;;;;;6124137;23;20010;-88
2021/07/17 07:22:01;;;;;;;11.90;10.80;;;29.70;71.30;;;;;;6124165;23;20165;-87
2021/07/17 07:24:27;;;;;;;13.10;11.80;;;29.60;70.40;;;;;;6125057;23;19998;-88
2021/07/17 07:26:53;;;;;;;11.85;10.73;;;29.60;69.70;;;;;;6125645;23;20069;-88
2021/07/17 07:29:19;;;;;;;11.93;10.73;;;29.50;69.90;;;;;;6124656;23;20009;-88
2021/07/17 07:31:45;;;;;;;11.38;10.27;;;29.50;69.80;;;;;;6125564;23;20026;-87
2021/07/17 07:34:11;;;;;;;12.70;11.40;;;29.50;70.10;;;;;;6123676;23;20022;-88
2021/07/17 07:36:36;;;;;;;11.57;10.38;;;29.60;70.10;;;;;;6123462;23;20034;-88
2021/07/17 07:39:03;;;;;;;11.73;10.52;;;29.60;70.30;;;;;;6125403;23;19998;-89
2021/07/17 07:41:29;;;;;;;11.35;10.25;;;29.60;69.80;;;;;;6124482;23;20012;-88
2021/07/17 07:43:54;;;;;;;15.30;10.75;;;29.60;69.10;;;;;;6124781;23;20002;-88
2021/07/17 07:46:20;;;;;;;11.75;10.65;;;29.70;69.50;;;;;;6125415;23;20005;-88
2021/07/17 07:48:46;;;;;;;13.52;11.43;;;29.80;68.50;;;;;;6124872;23;20080;-89
2021/07/17 07:51:12;;;;;;;12.88;11.63;;;29.80;68.60;;;;;;6124982;23;20080;-88
2021/07/17 07:53:38;;;;;;;10.35;9.35;;;29.80;68.40;;;;;;6126479;23;20037;-88
2021/07/17 07:56:05;;;;;;;11.10;10.10;;;29.80;68.70;;;;;;6125130;23;20002;-88
2021/07/17 07:58:30;;;;;;;11.68;10.48;;;29.90;68.30;;;;;;6124909;23;20053;-89
2021/07/17 08:00:59;;;;;;;12.80;11.50;;;29.90;67.60;;;;;;6123993;23;20105;-89
2021/07/17 08:03:25;;;;;;;11.55;10.35;;;30.00;67.10;;;;;;6125866;23;19998;-89
2021/07/17 08:05:50;;;;;;;12.15;10.65;;;30.00;67.10;;;;;;6122096;23;19998;-89
2021/07/17 08:08:16;;;;;;;10.82;9.82;;;30.00;66.80;;;;;;6123199;23;20017;-88
2021/07/17 08:10:42;;;;;;;12.18;10.95;;;29.90;66.60;;;;;;6122800;23;20701;-88
2021/07/17 08:13:08;;;;;;;11.13;9.88;;;30.00;66.70;;;;;;6125266;23;20094;-89
2021/07/17 08:15:33;;;;;;;10.05;9.13;;;30.00;66.40;;;;;;6122468;23;20037;-88
2021/07/17 08:17:59;;;;;;;10.75;9.60;;;30.10;66.60;;;;;;6123844;23;20002;-89
2021/07/17 08:20:25;;;;;;;10.50;9.40;;;30.20;66.10;;;;;;6124384;23;19994;-89
2021/07/17 08:22:52;;;;;;;11.13;10.13;;;30.30;65.80;;;;;;6124548;23;20050;-88
2021/07/17 08:25:18;;;;;;;11.02;9.90;;;30.40;66.20;;;;;;6125880;23;20006;-89
2021/07/17 08:27:44;;;;;;;9.70;8.77;;;30.40;65.40;;;;;;6126218;23;19994;-89
2021/07/17 08:30:11;;;;;;;10.57;9.55;;;30.50;65.30;;;;;;6124703;23;20006;-88
2021/07/17 08:32:41;;;;;;;10.20;9.18;;;30.60;64.30;;;;;;6125041;23;20478;-89
2021/07/17 08:35:08;;;;;;;9.43;8.25;;;30.70;64.60;;;;;;6126237;23;20006;-87
2021/07/17 08:37:34;;;;;;;9.70;8.80;;;30.70;64.20;;;;;;6126139;23;20004;-89
2021/07/17 08:40:03;;;;;;;8.85;8.02;;;30.80;64.10;;;;;;6126585;23;20009;-87
2021/07/17 08:42:31;;;;;;;9.68;8.88;;;31.00;64.00;;;;;;6126837;23;20077;-88
2021/07/17 08:45:00;;;;;;;10.20;9.20;;;31.10;63.60;;;;;;6125386;23;20005;-88
2021/07/17 08:47:30;;;;;;;11.90;10.70;;;31.20;63.40;;;;;;6124753;23;20056;-88
2021/07/17 08:49:57;;;;;;;12.45;9.15;;;31.20;62.00;;;;;;6125806;23;20422;-88
2021/07/17 08:52:24;;;;;;;9.55;8.65;;;31.20;61.90;;;;;;6124507;23;20048;-88
2021/07/17 08:54:50;;;;;;;9.75;8.75;;;31.20;62.10;;;;;;6124566;23;20445;-88
2021/07/17 08:57:16;;;;;;;9.68;8.77;;;31.30;61.50;;;;;;6124286;23;20144;-88
2021/07/17 08:59:41;;;;;;;9.52;8.63;;;31.20;61.30;;;;;;6124274;23;19998;-89
2021/07/17 09:02:07;;;;;;;9.73;8.77;;;31.20;61.10;;;;;;6124401;23;20006;-89
2021/07/17 09:04:33;;;;;;;9.15;8.35;;;31.30;60.90;;;;;;6124705;23;20006;-87
2021/07/17 09:06:59;;;;;;;9.00;8.15;;;31.40;60.70;;;;;;6127237;23;20028;-88
2021/07/17 09:09:36;;;;;;;9.30;8.40;;;31.50;60.60;;;;;;6131458;23;20069;-88
2021/07/17 09:12:19;;;;;;;9.65;7.47;;;31.60;60.20;;;;;;6129128;23;20018;-89
2021/07/17 09:14:45;;;;;;;8.00;7.30;;;31.80;60.20;;;;;;6129679;23;20073;-92
2021/07/17 09:17:20;;;;;;;6.80;6.18;;;32.00;60.20;;;;;;6128195;23;20002;-87
2021/07/17 09:20:00;;;;;;;7.78;7.07;;;32.10;59.80;;;;;;6127772;23;20002;-88
2021/07/17 09:22:34;;;;;;;7.85;7.05;;;32.20;59.10;;;;;;6127402;23;20430;-88
2021/07/17 09:25:13;;;;;;;8.10;7.40;;;32.30;59.20;;;;;;6128059;23;20002;-88
2021/07/17 09:27:39;;;;;;;7.88;7.10;;;32.40;57.60;;;;;;6128046;23;19998;-88
2021/07/17 09:30:25;;;;;;;8.27;7.47;;;32.40;58.20;;;;;;6127330;23;20002;-88
2021/07/17 09:33:02;;;;;;;8.35;7.50;;;32.50;57.00;;;;;;6150741;23;20026;-89
2021/07/17 09:35:28;;;;;;;9.55;6.90;;;32.50;57.20;;;;;;6126895;23;20034;-88
2021/07/17 09:37:55;;;;;;;7.85;7.05;;;32.60;57.90;;;;;;6126377;23;20002;-88
2021/07/17 09:40:25;;;;;;;9.70;8.70;;;32.60;57.60;;;;;;6127947;23;20002;-88
2021/07/17 09:42:50;;;;;;;8.80;8.00;;;32.60;56.60;;;;;;6128791;23;20080;-88
2021/07/17 09:45:41;;;;;;;8.80;8.05;;;32.50;57.10;;;;;;6128785;23;20422;-88
2021/07/17 09:48:27;;;;;;;7.82;7.13;;;32.50;54.70;;;;;;6129040;23;20482;-88
2021/07/17 09:50:54;;;;;;;8.18;7.43;;;32.40;56.10;;;;;;6126141;23;20432;-88
2021/07/17 09:53:44;;;;;;;8.23;7.53;;;32.40;56.40;;;;;;6126008;23;20462;-87
2021/07/17 09:56:21;;;;;;;8.75;7.65;;;32.50;54.90;;;;;;6125774;23;20092;-90
2021/07/17 09:58:47;;;;;;;8.55;7.53;;;32.50;54.50;;;;;;6126282;23;20010;-88
2021/07/17 10:01:16;;;;;;;7.47;6.88;;;32.60;55.90;;;;;;6128938;23;20041;-89
2021/07/17 10:03:42;;;;;;;7.97;6.80;;;32.70;55.90;;;;;;6127195;23;20089;-88
2021/07/17 10:06:09;;;;;;;7.97;7.28;;;32.80;55.40;;;;;;6126405;23;20049;-89
2021/07/17 10:08:35;;;;;;;8.10;7.30;;;32.80;55.30;;;;;;6127313;23;20009;-88
2021/07/17 10:11:10;;;;;;;7.68;7.05;;;32.80;55.30;;;;;;6128605;23;20092;-89
2021/07/17 10:13:39;;;;;;;8.57;7.55;;;32.70;54.80;;;;;;6127486;23;20016;-88
2021/07/17 10:16:22;;;;;;;7.50;6.80;;;32.70;54.90;;;;;;6125602;23;20041;-90
2021/07/17 10:18:49;;;;;;;7.10;6.40;;;32.70;55.00;;;;;;6128629;23;20064;-90
2021/07/17 10:21:15;;;;;;;7.85;7.15;;;32.70;54.80;;;;;;6127700;23;20010;-91
2021/07/17 10:23:41;;;;;;;7.85;7.13;;;32.70;55.30;;;;;;6127580;23;19998;-88
2021/07/17 10:26:09;;;;;;;7.97;7.18;;;32.70;54.80;;;;;;6126010;23;20006;-89
2021/07/17 10:28:36;;;;;;;8.30;7.50;;;32.70;54.70;;;;;;6129073;23;20010;-90
2021/07/17 10:31:03;;;;;;;8.23;7.40;;;32.80;54.40;;;;;;6129820;23;20014;-89
2021/07/17 10:33:31;;;;;;;8.68;7.88;;;32.80;54.20;;;;;;6129825;23;20315;-90
2021/07/17 10:35:58;;;;;;;8.52;7.70;;;32.80;54.50;;;;;;6129178;23;20010;-90
2021/07/17 10:38:25;;;;;;;10.70;8.73;;;32.70;53.60;;;;;;6126984;23;20322;-89
2021/07/17 10:40:51;;;;;;;8.10;7.40;;;32.60;53.70;;;;;;6129126;23;20025;-90
2021/07/17 10:43:18;;;;;;;8.43;7.40;;;32.70;54.20;;;;;;6125827;23;20010;-88
2021/07/17 10:45:45;;;;;;;7.70;6.85;;;32.80;54.20;;;;;;6125471;23;19998;-90
2021/07/17 10:48:27;;;;;;;8.43;7.57;;;32.90;54.00;;;;;;6126509;23;20018;-91
2021/07/17 10:50:58;;;;;;;8.57;7.78;;;32.90;53.40;;;;;;6127422;23;20082;-91
2021/07/17 10:53:49;;;;;;;8.90;8.05;;;33.00;53.40;;;;;;6126583;23;20085;-89
2021/07/17 10:56:27;;;;;;;8.63;7.72;;;33.00;53.20;;;;;;6125981;23;20037;-90
2021/07/17 10:58:53;;;;;;;8.10;7.38;;;33.00;51.80;;;;;;6123808;23;20354;-92
2021/07/17 11:01:19;;;;;;;7.75;7.05;;;33.10;53.20;;;;;;6125133;23;20006;-91
2021/07/17 11:03:47;;;;;;;9.02;8.23;;;33.10;53.10;;;;;;6126557;23;20489;-90
2021/07/17 11:06:36;;;;;;;8.25;7.47;;;33.20;52.90;;;;;;6124865;23;20104;-91
2021/07/17 11:09:27;;;;;;;8.10;7.40;;;33.20;53.10;;;;;;6125463;23;20028;-92
2021/07/17 11:12:25;;;;;;;8.80;8.00;;;33.30;52.60;;;;;;6125493;23;20016;-91
2021/07/17 11:14:52;;;;;;;8.43;7.57;;;33.30;51.80;;;;;;6132733;23;20377;-93
2021/07/17 11:17:43;;;;;;;8.00;7.25;;;33.40;52.70;;;;;;6138900;23;19998;-91
2021/07/17 11:20:31;;;;;;;8.13;7.25;;;33.50;51.30;;;;;;6142352;23;20418;-91
2021/07/17 11:23:13;;;;;;;6.72;6.03;;;33.60;52.60;;;;;;6141200;23;20068;-90
2021/07/17 11:26:01;;;;;;;7.43;6.05;;;33.70;52.60;;;;;;6138116;23;20058;-90
2021/07/17 11:28:53;;;;;;;7.30;6.63;;;33.80;52.50;;;;;;6122150;23;20373;-91
2021/07/17 11:31:31;;;;;;;6.97;6.38;;;33.90;52.70;;;;;;6127558;23;20465;-92
2021/07/17 11:34:09;;;;;;;7.57;6.90;;;33.90;52.20;;;;;;6126267;23;20442;-91
2021/07/17 11:36:36;;;;;;;7.93;6.47;;;33.90;52.40;;;;;;6126453;23;20326;-91
2021/07/17 11:39:08;;;;;;;6.68;6.03;;;33.90;52.80;;;;;;6101433;23;20009;-90
2021/07/17 11:41:34;;;;;;;6.93;6.32;;;34.00;52.50;;;;;;6127291;23;20029;-93
2021/07/17 11:44:01;;;;;;;7.57;6.88;;;34.10;52.40;;;;;;6125375;23;20010;-91
2021/07/17 11:46:27;;;;;;;7.90;5.82;;;34.30;52.40;;;;;;6127108;23;20002;-91
2021/07/17 11:49:03;;;;;;;8.23;7.00;;;34.40;52.30;;;;;;6126600;23;20053;-90
2021/07/17 11:51:28;;;;;;;7.13;6.43;;;34.50;51.50;;;;;;6126226;23;20005;-90
2021/07/17 11:54:01;;;;;;;6.72;6.13;;;34.50;51.80;;;;;;6125380;23;20025;-91
2021/07/17 11:56:27;;;;;;;7.47;6.60;;;34.50;51.10;;;;;;6120754;23;20060;-91
2021/07/17 11:59:13;;;;;;;7.10;6.50;;;34.40;51.10;;;;;;6124746;23;20010;-92
2021/07/17 12:01:39;;;;;;;8.18;7.47;;;34.40;50.40;;;;;;6126574;23;19998;-90
2021/07/17 12:04:05;;;;;;;8.35;7.55;;;34.30;51.20;;;;;;6125387;23;20037;-90
2021/07/17 12:06:32;;;;;;;7.60;6.90;;;34.10;51.40;;;;;;6100730;23;20014;-89
2021/07/17 12:09:18;;;;;;;6.80;6.20;;;34.00;51.60;;;;;;6125128;23;20076;-90
2021/07/17 12:11:49;;;;;;;7.40;6.70;;;34.20;51.30;;;;;;6124087;23;20081;-91
2021/07/17 12:14:19;;;;;;;6.60;6.00;;;34.40;51.60;;;;;;6125655;23;20041;-92
2021/07/17 12:16:45;;;;;;;8.10;7.30;;;34.60;51.40;;;;;;6125695;23;20017;-91
2021/07/17 12:19:17;;;;;;;7.35;6.75;;;34.90;50.70;;;;;;6125060;23;20005;-92
2021/07/17 12:21:42;;;;;;;7.22;6.47;;;35.10;50.40;;;;;;6124969;23;20160;-90
2021/07/17 12:24:08;;;;;;;6.70;6.10;;;35.40;50.90;;;;;;6127343;23;20002;-89
2021/07/17 12:26:36;;;;;;;6.65;6.05;;;35.70;50.80;;;;;;6131720;23;20345;-89
2021/07/17 12:29:01;;;;;;;7.60;6.90;;;36.10;50.40;;;;;;6131454;23;20005;-91
2021/07/17 12:31:27;;;;;;;7.68;6.38;;;36.50;50.00;;;;;;6124297;23;20021;-92
2021/07/17 12:33:53;;;;;;;6.68;6.07;;;37.00;49.60;;;;;;6123881;23;20049;-90
2021/07/17 12:36:22;;;;;;;7.30;6.70;;;37.20;48.60;;;;;;6128161;23;20030;-90
2021/07/17 12:38:55;;;;;;;7.53;6.82;;;37.20;48.50;;;;;;6127729;23;20033;-90
2021/07/17 12:41:32;;;;;;;6.93;6.32;;;37.50;48.20;;;;;;6130012;23;20002;-95